Terminal Aerodrome Forecast
Issued by NWS

Home | Current Version | Previous Version | Text Only | Print | Product List | Glossary On
Versions: 1 2 3 4 5 6 7 8 9 10 11 12 13
000
FTUS42 KMLB 240528
TAFISM
TAF
KISM 240528Z 2406/2506 05006KT P6SM FEW040 SCT250
     FM241400 05010KT P6SM SCT035 SCT250
     FM241800 06013G19KT P6SM VCSH SCT040 BKN120
     FM242000 06015G21KT P6SM VCTS SCT045CB SCT070 BKN250=

USA.gov is the U.S. government's official web portal to all federal, state and local government web resources and services.